createdAt,value
2022-11-27T00:01:16.071Z,37.40
2022-11-27T00:03:43.352Z,45.40
2022-11-27T00:06:16.124Z,36.50
2022-11-27T00:08:43.901Z,36.30
2022-11-27T00:11:13.534Z,37.90
2022-11-27T00:13:40.693Z,36.90
2022-11-27T00:16:08.102Z,40.45
2022-11-27T00:18:35.765Z,40.97
2022-11-27T00:21:07.367Z,38.95
2022-11-27T00:23:35.064Z,39.95
2022-11-27T00:26:02.382Z,35.88
2022-11-27T00:28:29.167Z,36.58
2022-11-27T00:31:00.639Z,33.10
2022-11-27T00:33:27.633Z,34.88
2022-11-27T00:35:54.515Z,32.17
2022-11-27T00:38:21.586Z,39.17
2022-11-27T00:40:48.585Z,35.72
2022-11-27T00:43:15.211Z,41.72
2022-11-27T00:45:41.771Z,39.65
2022-11-27T00:48:08.354Z,38.33
2022-11-27T00:50:34.994Z,39.10
2022-11-27T00:53:01.703Z,36.63
2022-11-27T00:55:28.329Z,42.00
2022-11-27T00:57:55.117Z,44.38
2022-11-27T01:00:23.267Z,46.05
2022-11-27T01:02:49.841Z,40.92
2022-11-27T01:05:16.766Z,44.72
2022-11-27T01:07:43.516Z,41.78
2022-11-27T01:10:10.657Z,46.15
2022-11-27T01:12:37.217Z,41.92
2022-11-27T01:15:04.244Z,44.63
2022-11-27T01:17:30.857Z,45.05
2022-11-27T01:19:57.516Z,44.22
2022-11-27T01:22:24.049Z,42.95
2022-11-27T01:24:50.613Z,44.42
2022-11-27T01:27:17.272Z,44.58
2022-11-27T01:29:45.002Z,40.42
2022-11-27T01:32:11.558Z,40.65
2022-11-27T01:34:38.574Z,43.65
2022-11-27T01:37:05.473Z,40.03
2022-11-27T01:39:32.076Z,42.20
2022-11-27T01:41:58.611Z,44.25
2022-11-27T01:44:25.141Z,42.33
2022-11-27T01:47:12.023Z,40.78
2022-11-27T01:49:42.726Z,43.78
2022-11-27T01:52:11.463Z,41.95
2022-11-27T01:55:01.926Z,41.25
2022-11-27T01:57:39.052Z,43.83
2022-11-27T02:00:08.065Z,40.42
2022-11-27T02:02:34.671Z,42.88
2022-11-27T02:05:01.413Z,43.72
2022-11-27T02:07:28.090Z,42.47
2022-11-27T02:09:54.728Z,41.72
2022-11-27T02:12:25.532Z,42.72
2022-11-27T02:15:09.760Z,40.67
2022-11-27T02:18:24.853Z,45.05
2022-11-27T02:21:03.419Z,42.85
2022-11-27T02:23:52.879Z,43.67
2022-11-27T02:27:10.916Z,43.10
2022-11-27T02:29:39.854Z,41.47
2022-11-27T02:32:15.944Z,39.75
2022-11-27T02:34:54.564Z,42.20
2022-11-27T02:37:45.723Z,43.63
2022-11-27T02:40:32.182Z,41.15
2022-11-27T02:43:03.755Z,46.35
2022-11-27T02:45:36.672Z,44.47
2022-11-27T02:48:04.771Z,45.40
2022-11-27T02:50:34.690Z,43.72
2022-11-27T02:53:06.828Z,45.53
2022-11-27T02:55:36.281Z,40.47
2022-11-27T02:58:07.214Z,39.15
2022-11-27T03:00:35.761Z,34.92
2022-11-27T03:03:06.827Z,34.80
2022-11-27T03:05:39.150Z,32.88
2022-11-27T03:08:10.412Z,44.20
2022-11-27T03:10:54.359Z,61.22
2022-11-27T03:13:21.314Z,54.88
2022-11-27T03:15:58.559Z,54.38
2022-11-27T03:18:36.707Z,48.05
2022-11-27T03:21:14.095Z,49.60
2022-11-27T03:23:40.716Z,48.25
2022-11-27T03:26:07.401Z,45.45
2022-11-27T03:28:35.234Z,41.45
2022-11-27T03:31:01.904Z,41.05
2022-11-27T03:33:28.859Z,37.25
2022-11-27T03:35:55.484Z,44.33
2022-11-27T03:38:22.164Z,42.63
2022-11-27T03:41:05.016Z,45.03
2022-11-27T03:43:38.571Z,42.13
2022-11-27T03:46:28.430Z,37.58
2022-11-27T03:49:07.110Z,39.47
2022-11-27T03:51:58.633Z,40.35
2022-11-27T03:55:13.813Z,39.83
2022-11-27T03:58:08.822Z,52.95
2022-11-27T04:00:40.217Z,39.15
2022-11-27T04:03:10.933Z,60.08
2022-11-27T04:05:37.858Z,49.38
2022-11-27T04:08:04.771Z,46.03
2022-11-27T04:10:31.565Z,45.97
2022-11-27T04:12:58.224Z,39.30
2022-11-27T04:15:24.762Z,43.15
2022-11-27T04:17:51.485Z,43.40
2022-11-27T04:20:18.142Z,42.88
2022-11-27T04:22:44.658Z,40.50
2022-11-27T04:25:11.523Z,42.13
2022-11-27T04:27:38.076Z,45.95
2022-11-27T04:30:05.517Z,43.35
2022-11-27T04:32:32.098Z,45.47
2022-11-27T04:34:58.658Z,44.00
2022-11-27T04:37:25.629Z,46.45
2022-11-27T04:39:52.281Z,42.88
2022-11-27T04:42:18.872Z,46.05
2022-11-27T04:44:45.429Z,44.30
2022-11-27T04:47:12.001Z,45.88
2022-11-27T04:49:38.818Z,46.60
2022-11-27T04:52:05.882Z,46.03
2022-11-27T04:54:32.712Z,43.63
2022-11-27T04:56:59.274Z,42.53
2022-11-27T04:59:25.871Z,45.78
2022-11-27T05:01:52.451Z,47.97
2022-11-27T05:04:19.011Z,50.78
2022-11-27T05:06:45.544Z,44.90
2022-11-27T05:09:12.304Z,48.17
2022-11-27T05:11:39.173Z,44.65
2022-11-27T05:14:22.761Z,43.78
2022-11-27T05:16:53.746Z,44.45
2022-11-27T05:19:22.497Z,42.90
2022-11-27T05:21:50.604Z,45.40
2022-11-27T05:24:18.848Z,43.72
2022-11-27T05:26:45.812Z,45.17
2022-11-27T05:29:13.595Z,44.78
2022-11-27T05:31:40.884Z,47.70
2022-11-27T05:34:08.207Z,45.72
2022-11-27T05:36:35.685Z,47.78
2022-11-27T05:39:04.521Z,47.03
2022-11-27T05:41:31.180Z,45.78
2022-11-27T05:43:57.750Z,42.58
2022-11-27T05:46:24.425Z,48.63
2022-11-27T05:48:51.066Z,51.30
2022-11-27T05:51:18.233Z,48.00
2022-11-27T05:53:45.664Z,43.33
2022-11-27T05:56:15.142Z,44.30
2022-11-27T05:58:43.503Z,40.47
2022-11-27T06:01:12.290Z,47.25
2022-11-27T06:03:41.933Z,40.42
2022-11-27T06:06:10.574Z,43.35
2022-11-27T06:08:38.233Z,44.40
2022-11-27T06:11:13.414Z,46.22
2022-11-27T06:13:40.613Z,42.55
2022-11-27T06:16:08.571Z,46.38
2022-11-27T06:18:35.198Z,42.63
2022-11-27T06:21:06.088Z,41.72
2022-11-27T06:23:32.677Z,45.20
2022-11-27T06:25:59.406Z,42.05
2022-11-27T06:28:25.913Z,43.63
2022-11-27T06:30:52.484Z,44.20
2022-11-27T06:33:19.066Z,43.88
2022-11-27T06:35:45.813Z,39.90
2022-11-27T06:38:12.448Z,42.75
2022-11-27T06:40:39.095Z,47.20
2022-11-27T06:43:05.829Z,43.47
2022-11-27T06:45:33.526Z,41.92
2022-11-27T06:48:00.213Z,38.20
2022-11-27T06:50:27.202Z,43.03
2022-11-27T06:52:53.796Z,41.53
2022-11-27T06:55:20.352Z,45.47
2022-11-27T06:57:50.278Z,38.38
2022-11-27T07:00:18.214Z,39.38
2022-11-27T07:02:44.769Z,41.88
2022-11-27T07:05:11.467Z,37.22
2022-11-27T07:07:43.459Z,41.42
2022-11-27T07:10:10.529Z,41.70
2022-11-27T07:12:37.123Z,40.35
2022-11-27T07:15:04.520Z,38.40
2022-11-27T07:17:31.379Z,36.00
2022-11-27T07:19:57.896Z,42.88
2022-11-27T07:22:24.529Z,43.20
2022-11-27T07:24:51.112Z,42.60
2022-11-27T07:27:17.659Z,38.75
2022-11-27T07:29:44.329Z,41.15
2022-11-27T07:32:10.891Z,35.10
2022-11-27T07:34:37.560Z,36.75
2022-11-27T07:37:04.225Z,38.90
2022-11-27T07:40:00.390Z,38.97
2022-11-27T07:45:04.271Z,40.33
2022-11-27T07:47:30.989Z,39.95
2022-11-27T07:50:00.219Z,40.17
2022-11-27T07:52:27.525Z,47.90
2022-11-27T07:54:54.457Z,39.28
2022-11-27T07:57:21.202Z,35.90
2022-11-27T07:59:48.039Z,42.30
2022-11-27T08:02:15.048Z,36.83
2022-11-27T08:04:42.091Z,38.30
2022-11-27T08:07:09.035Z,37.70
2022-11-27T08:09:35.809Z,39.85
2022-11-27T08:12:02.342Z,37.22
2022-11-27T08:14:29.042Z,32.80
2022-11-27T08:16:55.966Z,34.58
2022-11-27T08:19:22.975Z,33.42
2022-11-27T08:21:49.655Z,34.47
2022-11-27T08:24:16.474Z,35.70
2022-11-27T08:26:43.140Z,35.08
2022-11-27T08:29:13.221Z,32.08
2022-11-27T08:31:40.139Z,36.25
2022-11-27T08:34:06.772Z,37.33
2022-11-27T08:36:33.506Z,30.80
2022-11-27T08:39:00.067Z,36.40
2022-11-27T08:41:26.626Z,32.28
2022-11-27T08:43:53.268Z,32.90
2022-11-27T08:46:19.938Z,35.58
2022-11-27T08:48:46.541Z,33.35
2022-11-27T08:51:15.385Z,36.80
2022-11-27T08:53:44.414Z,36.65
2022-11-27T08:56:19.797Z,33.67
2022-11-27T08:58:46.902Z,34.25
2022-11-27T09:01:18.878Z,32.55
2022-11-27T09:03:45.832Z,37.22
2022-11-27T09:06:18.464Z,33.17
2022-11-27T09:08:45.517Z,37.53
2022-11-27T09:11:13.709Z,35.78
2022-11-27T09:13:40.669Z,39.45
2022-11-27T09:16:10.801Z,37.60
2022-11-27T09:18:37.999Z,35.50
2022-11-27T09:21:10.790Z,41.20
2022-11-27T09:23:38.353Z,37.05
2022-11-27T09:26:08.125Z,40.10
2022-11-27T09:28:36.178Z,43.30
2022-11-27T09:31:05.226Z,40.78
2022-11-27T09:33:34.538Z,42.83
2022-11-27T09:36:14.303Z,42.85
2022-11-27T09:38:41.481Z,43.25
2022-11-27T09:41:11.823Z,43.92
2022-11-27T09:44:03.382Z,42.67
2022-11-27T09:46:35.509Z,42.60
2022-11-27T09:49:07.809Z,42.90
2022-11-27T09:51:44.089Z,46.85
2022-11-27T09:54:21.347Z,48.17
2022-11-27T09:56:52.080Z,45.17
2022-11-27T09:59:21.255Z,50.90
2022-11-27T10:01:51.119Z,48.53
2022-11-27T10:04:20.414Z,47.50
2022-11-27T10:06:52.958Z,45.97
2022-11-27T10:09:45.314Z,41.72
2022-11-27T10:12:17.768Z,47.50
2022-11-27T10:14:47.388Z,40.25
2022-11-27T10:17:22.623Z,43.25
2022-11-27T10:19:55.935Z,41.60
2022-11-27T10:22:51.432Z,36.40
2022-11-27T10:25:49.336Z,40.65
2022-11-27T10:28:39.581Z,40.42
2022-11-27T10:31:18.333Z,41.58
2022-11-27T10:33:55.158Z,39.20
2022-11-27T10:36:37.265Z,37.17
2022-11-27T10:39:06.957Z,42.10
2022-11-27T10:41:49.229Z,37.75
2022-11-27T10:44:39.318Z,39.42
2022-11-27T10:47:10.738Z,37.55
2022-11-27T10:49:40.764Z,43.83
2022-11-27T10:52:14.076Z,39.28
2022-11-27T10:54:41.496Z,35.88
2022-11-27T10:57:33.425Z,34.20
2022-11-27T11:00:27.982Z,35.50
2022-11-27T11:03:02.957Z,36.65
2022-11-27T11:05:45.076Z,34.97
2022-11-27T11:08:19.800Z,36.55
2022-11-27T11:10:49.565Z,34.28
2022-11-27T11:13:31.073Z,37.17
2022-11-27T11:16:20.532Z,38.90
2022-11-27T11:18:55.219Z,42.60
2022-11-27T11:21:39.066Z,36.40
2022-11-27T11:24:14.736Z,29.15
2022-11-27T11:26:53.690Z,21.13
2022-11-27T11:29:27.101Z,19.52
2022-11-27T11:31:56.329Z,18.85
2022-11-27T11:34:27.079Z,18.13
2022-11-27T11:36:58.938Z,18.00
2022-11-27T11:39:35.857Z,21.17
2022-11-27T11:42:10.219Z,19.48
2022-11-27T11:44:39.954Z,21.38
2022-11-27T11:47:17.801Z,24.48
2022-11-27T11:49:44.684Z,20.35
2022-11-27T11:52:48.315Z,24.63
2022-11-27T11:55:23.042Z,17.10
2022-11-27T11:58:16.173Z,18.88
2022-11-27T12:01:11.805Z,19.23
2022-11-27T12:04:13.805Z,21.92
2022-11-27T12:07:02.124Z,12.63
2022-11-27T12:09:37.782Z,15.10
2022-11-27T12:12:13.983Z,14.40
2022-11-27T12:14:57.212Z,11.43
2022-11-27T12:17:45.024Z,13.02
2022-11-27T12:20:41.822Z,11.93
2022-11-27T12:23:42.256Z,12.10
2022-11-27T12:26:29.223Z,13.25
2022-11-27T12:29:21.795Z,13.30
2022-11-27T12:32:07.039Z,17.20
2022-11-27T12:34:38.970Z,18.83
2022-11-27T12:37:34.785Z,15.88
2022-11-27T12:40:05.282Z,18.23
2022-11-27T12:42:40.735Z,20.55
2022-11-27T12:45:23.028Z,19.40
2022-11-27T12:48:23.710Z,19.83
2022-11-27T12:50:56.366Z,17.05
2022-11-27T12:53:38.784Z,16.83
2022-11-27T12:56:26.581Z,21.63
2022-11-27T12:59:20.998Z,19.67
2022-11-27T13:02:05.862Z,21.48
2022-11-27T13:04:37.221Z,20.13
2022-11-27T13:07:12.339Z,16.63
2022-11-27T13:10:17.518Z,20.30
2022-11-27T13:13:06.031Z,16.77
2022-11-27T13:16:02.145Z,17.73
2022-11-27T13:18:47.452Z,21.80
2022-11-27T13:21:20.600Z,22.50
2022-11-27T13:23:47.342Z,20.20
2022-11-27T13:26:26.523Z,20.73
2022-11-27T13:28:58.471Z,19.10
2022-11-27T13:31:32.472Z,22.25
2022-11-27T13:34:10.083Z,20.52
2022-11-27T13:36:44.934Z,20.88
2022-11-27T13:39:44.607Z,19.55
2022-11-27T13:42:11.335Z,23.52
2022-11-27T13:44:53.055Z,26.15
2022-11-27T13:47:22.445Z,17.80
2022-11-27T13:50:01.229Z,19.25
2022-11-27T13:52:29.672Z,19.80
2022-11-27T13:55:09.844Z,21.40
2022-11-27T13:57:38.505Z,28.05
2022-11-27T14:00:13.657Z,20.15
2022-11-27T14:02:40.547Z,15.27
2022-11-27T14:05:07.518Z,14.32
2022-11-27T14:07:47.858Z,17.35
2022-11-27T14:10:26.710Z,13.32
2022-11-27T14:13:03.585Z,14.48
2022-11-27T14:15:33.166Z,16.00
2022-11-27T14:18:19.494Z,12.15
2022-11-27T14:20:58.020Z,15.90
2022-11-27T14:23:36.480Z,12.25
2022-11-27T14:26:15.407Z,12.88
2022-11-27T14:28:49.264Z,18.27
2022-11-27T14:31:30.566Z,10.65
2022-11-27T14:36:44.620Z,11.18
2022-11-27T14:39:31.355Z,9.50
2022-11-27T14:42:04.530Z,10.52
2022-11-27T14:44:31.784Z,9.93
2022-11-27T14:47:02.479Z,10.43
2022-11-27T14:49:31.701Z,9.30
2022-11-27T14:52:04.720Z,11.15
2022-11-27T14:54:39.363Z,11.73
2022-11-27T14:57:07.386Z,7.80
2022-11-27T14:59:35.110Z,8.32
2022-11-27T15:02:18.099Z,7.50
2022-11-27T15:04:46.714Z,11.75
2022-11-27T15:07:17.867Z,6.00
2022-11-27T15:09:49.091Z,7.18
2022-11-27T15:12:30.896Z,8.30
2022-11-27T15:15:07.338Z,9.43
2022-11-27T15:17:37.066Z,7.10
2022-11-27T15:20:13.718Z,6.32
2022-11-27T15:22:51.591Z,3.10
2022-11-27T15:25:36.077Z,5.25
2022-11-27T15:28:03.393Z,4.53
2022-11-27T15:30:30.082Z,4.50
2022-11-27T15:32:56.900Z,2.65
2022-11-27T15:35:28.361Z,3.03
2022-11-27T15:37:57.307Z,2.80
2022-11-27T15:40:29.837Z,2.88
2022-11-27T15:42:56.523Z,2.90
2022-11-27T15:45:43.578Z,2.38
2022-11-27T15:48:18.966Z,2.88
2022-11-27T15:50:51.446Z,2.95
2022-11-27T15:53:19.072Z,3.05
2022-11-27T15:55:46.275Z,3.97
2022-11-27T15:58:12.935Z,4.03
2022-11-27T16:00:40.665Z,2.22
2022-11-27T16:03:07.269Z,3.75
2022-11-27T16:05:34.110Z,3.65
2022-11-27T16:08:00.929Z,3.70
2022-11-27T16:10:27.634Z,5.72
2022-11-27T16:12:55.593Z,7.25
2022-11-27T16:15:23.542Z,6.95
2022-11-27T16:17:50.966Z,7.07
2022-11-27T16:20:17.735Z,6.57
2022-11-27T16:22:44.422Z,8.95
2022-11-27T16:25:10.954Z,4.72
2022-11-27T16:27:37.579Z,7.30
2022-11-27T16:30:04.727Z,8.63
2022-11-27T16:32:31.357Z,6.95
2022-11-27T16:34:58.121Z,8.27
2022-11-27T16:37:26.768Z,8.38
2022-11-27T16:39:53.348Z,5.75
2022-11-27T16:42:20.070Z,8.55
2022-11-27T16:44:47.413Z,6.93
2022-11-27T16:47:14.048Z,4.43
2022-11-27T16:49:41.405Z,2.72
2022-11-27T16:52:10.002Z,5.53
2022-11-27T16:54:36.905Z,3.75
2022-11-27T16:57:03.832Z,4.22
2022-11-27T16:59:30.521Z,4.18
2022-11-27T17:01:57.247Z,7.28
2022-11-27T17:04:24.150Z,3.45
2022-11-27T17:06:50.716Z,3.88
2022-11-27T17:09:17.858Z,5.32
2022-11-27T17:11:48.735Z,6.50
2022-11-27T17:16:43.586Z,8.73
2022-11-27T17:19:14.813Z,6.88
2022-11-27T17:21:41.894Z,10.98
2022-11-27T17:24:15.382Z,8.23
2022-11-27T17:26:43.530Z,7.70
2022-11-27T17:29:16.190Z,6.22
2022-11-27T17:31:42.916Z,5.65
2022-11-27T17:34:14.712Z,7.25
2022-11-27T17:36:43.171Z,8.68
2022-11-27T17:39:11.965Z,5.65
2022-11-27T17:41:40.553Z,9.23
2022-11-27T17:44:07.724Z,8.40
2022-11-27T17:46:36.273Z,8.77
2022-11-27T17:49:05.109Z,6.50
2022-11-27T17:51:33.127Z,5.68
2022-11-27T17:54:01.761Z,8.35
2022-11-27T17:56:29.524Z,9.35
2022-11-27T17:58:56.267Z,8.75
2022-11-27T18:01:25.077Z,8.50
2022-11-27T18:03:54.756Z,7.68
2022-11-27T18:06:22.888Z,8.45
2022-11-27T18:08:49.857Z,6.75
2022-11-27T18:11:18.096Z,7.85
2022-11-27T18:13:44.819Z,5.60
2022-11-27T18:16:14.361Z,3.65
2022-11-27T18:18:41.661Z,7.82
2022-11-27T18:21:16.748Z,6.45
2022-11-27T18:24:14.524Z,6.75
2022-11-27T18:26:52.399Z,8.05
2022-11-27T18:29:18.243Z,6.40
2022-11-27T18:31:45.971Z,5.28
2022-11-27T18:34:12.705Z,5.80
2022-11-27T18:36:39.382Z,6.95
2022-11-27T18:39:06.384Z,6.63
2022-11-27T18:41:32.966Z,4.22
2022-11-27T18:43:59.772Z,5.35
2022-11-27T18:46:26.960Z,7.00
2022-11-27T18:48:53.791Z,6.65
2022-11-27T18:51:25.582Z,7.45
2022-11-27T18:53:53.218Z,5.47
2022-11-27T18:56:23.270Z,6.88
2022-11-27T18:58:50.831Z,8.85
2022-11-27T19:01:28.665Z,6.32
2022-11-27T19:03:55.669Z,5.72
2022-11-27T19:06:24.976Z,5.65
2022-11-27T19:08:52.112Z,5.57
2022-11-27T19:11:21.838Z,6.72
2022-11-27T19:13:50.038Z,7.82
2022-11-27T19:16:19.844Z,7.15
2022-11-27T19:18:46.704Z,8.75
2022-11-27T19:21:19.261Z,6.93
2022-11-27T19:23:46.047Z,7.78
2022-11-27T19:26:16.251Z,8.73
2022-11-27T19:28:46.165Z,8.02
2022-11-27T19:31:13.587Z,7.10
2022-11-27T19:33:40.641Z,7.28
2022-11-27T19:36:10.639Z,8.90
2022-11-27T19:38:38.964Z,7.03
2022-11-27T19:41:17.185Z,9.90
2022-11-27T19:43:44.973Z,9.45
2022-11-27T19:46:23.699Z,9.38
2022-11-27T19:48:51.061Z,9.30
2022-11-27T19:51:17.844Z,6.45
2022-11-27T19:53:44.720Z,7.78
2022-11-27T19:56:12.804Z,8.38
2022-11-27T19:58:41.248Z,8.25
2022-11-27T20:01:13.582Z,11.30
2022-11-27T20:03:40.238Z,8.55
2022-11-27T20:06:10.390Z,9.15
2022-11-27T20:08:38.110Z,11.98
2022-11-27T20:11:06.290Z,8.82
2022-11-27T20:13:33.416Z,12.68
2022-11-27T20:16:00.554Z,12.23
2022-11-27T20:18:28.128Z,10.90
2022-11-27T20:21:10.127Z,10.00
2022-11-27T20:23:37.063Z,10.55
2022-11-27T20:26:05.956Z,13.88
2022-11-27T20:28:33.088Z,7.43
2022-11-27T20:31:01.249Z,8.98
2022-11-27T20:33:28.998Z,7.55
2022-11-27T20:35:56.102Z,8.10
2022-11-27T20:38:23.350Z,7.43
2022-11-27T20:40:50.782Z,8.13
2022-11-27T20:43:17.574Z,6.85
2022-11-27T20:45:44.392Z,6.05
2022-11-27T20:48:11.039Z,5.28
2022-11-27T20:50:39.424Z,1.80
2022-11-27T20:53:06.576Z,4.18
2022-11-27T20:55:34.586Z,4.07
2022-11-27T20:58:01.176Z,4.65
2022-11-27T21:00:28.096Z,3.35
2022-11-27T21:02:54.688Z,5.47
2022-11-27T21:05:21.296Z,3.95
2022-11-27T21:07:48.069Z,3.30
2022-11-27T21:10:16.829Z,5.88
2022-11-27T21:12:44.190Z,5.25
2022-11-27T21:15:11.072Z,7.50
2022-11-27T21:17:37.842Z,6.25
2022-11-27T21:20:05.707Z,6.85
2022-11-27T21:22:32.637Z,7.20
2022-11-27T21:24:59.490Z,8.60
2022-11-27T21:27:28.256Z,12.45
2022-11-27T21:29:55.229Z,9.13
2022-11-27T21:32:26.649Z,9.75
2022-11-27T21:34:53.540Z,10.63
2022-11-27T21:37:20.381Z,11.30
2022-11-27T21:39:47.013Z,7.97
2022-11-27T21:42:13.676Z,11.93
2022-11-27T21:44:42.351Z,12.35
2022-11-27T21:47:12.248Z,9.73
2022-11-27T21:49:40.077Z,9.73
2022-11-27T21:52:07.313Z,8.48
2022-11-27T21:54:34.847Z,10.20
2022-11-27T21:57:01.789Z,10.07
2022-11-27T21:59:28.371Z,10.10
2022-11-27T22:01:57.286Z,12.30
2022-11-27T22:04:25.047Z,11.27
2022-11-27T22:06:51.718Z,10.70
2022-11-27T22:09:18.688Z,12.90
2022-11-27T22:11:46.547Z,13.48
2022-11-27T22:14:15.339Z,10.77
2022-11-27T22:16:45.922Z,11.80
2022-11-27T22:19:14.399Z,12.13
2022-11-27T22:24:25.872Z,12.25
2022-11-27T22:26:52.578Z,14.38
2022-11-27T22:29:19.183Z,13.75
2022-11-27T22:31:45.825Z,18.80
2022-11-27T22:34:12.584Z,12.68
2022-11-27T22:36:39.153Z,11.48
2022-11-27T22:39:08.881Z,15.10
2022-11-27T22:41:37.523Z,14.32
2022-11-27T22:44:09.038Z,14.95
2022-11-27T22:46:37.094Z,13.45
2022-11-27T22:49:06.473Z,14.70
2022-11-27T22:51:36.217Z,11.55
2022-11-27T22:54:04.602Z,13.35
2022-11-27T22:56:33.742Z,9.38
2022-11-27T22:59:30.388Z,14.13
2022-11-27T23:01:48.745Z,13.60
2022-11-27T23:04:15.592Z,13.48
2022-11-27T23:06:42.249Z,10.23
2022-11-27T23:09:09.604Z,9.60
2022-11-27T23:11:36.224Z,7.20
2022-11-27T23:14:03.449Z,10.80
2022-11-27T23:16:30.303Z,14.68
2022-11-27T23:18:59.723Z,10.35
2022-11-27T23:21:27.273Z,13.20
2022-11-27T23:23:53.904Z,11.73
2022-11-27T23:26:22.634Z,13.77
2022-11-27T23:28:51.371Z,11.57
2022-11-27T23:31:31.219Z,11.57
2022-11-27T23:33:59.084Z,11.45
2022-11-27T23:36:25.926Z,12.60
2022-11-27T23:38:52.844Z,12.98
2022-11-27T23:41:21.822Z,12.82
2022-11-27T23:43:49.410Z,14.07
2022-11-27T23:46:18.265Z,13.23
2022-11-27T23:48:45.690Z,15.18
2022-11-27T23:51:24.660Z,10.05
2022-11-27T23:53:52.768Z,12.10
2022-11-27T23:56:25.390Z,13.82
2022-11-27T23:58:53.405Z,11.68
